createdAt,value
2016-12-12T00:00:49.096Z,1017.8
2016-12-12T00:01:52.547Z,1017.9
2016-12-12T00:02:55.493Z,1017.9
2016-12-12T00:03:58.942Z,1017.9
2016-12-12T00:05:01.947Z,1017.9
2016-12-12T00:06:05.396Z,1017.9
2016-12-12T00:07:08.845Z,1017.9
2016-12-12T00:08:11.794Z,1017.9
2016-12-12T00:09:15.243Z,1017.9
2016-12-12T00:10:18.688Z,1017.9
2016-12-12T00:11:21.637Z,1017.8
2016-12-12T00:12:25.090Z,1017.9
2016-12-12T00:13:28.063Z,1017.8
2016-12-12T00:14:31.518Z,1017.9
2016-12-12T00:15:34.964Z,1017.8
2016-12-12T00:16:37.914Z,1017.9
2016-12-12T00:17:41.365Z,1017.9
2016-12-12T00:18:44.823Z,1017.9
2016-12-12T00:19:47.763Z,1017.9
2016-12-12T00:21:54.618Z,1017.9
2016-12-12T00:22:57.567Z,1017.9
2016-12-12T00:24:01.025Z,1017.9
2016-12-12T00:25:03.968Z,1018
2016-12-12T00:26:07.426Z,1017.9
2016-12-12T00:27:10.873Z,1017.9
2016-12-12T00:29:17.232Z,1017.9
2016-12-12T00:30:20.685Z,1017.9
2016-12-12T00:31:23.629Z,1017.9
2016-12-12T00:32:27.213Z,1017.9
2016-12-12T00:33:30.157Z,1017.9
2016-12-12T00:34:33.635Z,1017.9
2016-12-12T00:35:36.584Z,1017.9
2016-12-12T00:36:40.065Z,1017.9
2016-12-12T00:37:43.513Z,1017.9
2016-12-12T00:38:46.459Z,1017.9
2016-12-12T00:39:49.911Z,1017.9
2016-12-12T00:40:53.359Z,1017.9
2016-12-12T00:41:56.305Z,1017.9
2016-12-12T00:42:59.782Z,1017.9
2016-12-12T00:44:02.723Z,1017.9
2016-12-12T00:45:06.173Z,1017.9
2016-12-12T00:46:09.621Z,1018
2016-12-12T00:47:12.566Z,1018
2016-12-12T00:48:16.012Z,1017.9
2016-12-12T00:49:19.464Z,1018
2016-12-12T00:50:22.450Z,1018
2016-12-12T00:51:25.894Z,1018
2016-12-12T00:52:28.842Z,1017.9
2016-12-12T00:53:32.430Z,1018
2016-12-12T00:54:35.372Z,1018
2016-12-12T00:55:38.823Z,1018
2016-12-12T00:57:45.193Z,1018
2016-12-12T00:58:48.643Z,1018
2016-12-12T00:59:52.095Z,1018
2016-12-12T01:00:55.041Z,1018
2016-12-12T01:01:58.488Z,1018.1
2016-12-12T01:03:01.435Z,1018.1
2016-12-12T01:04:04.891Z,1018
2016-12-12T01:05:07.974Z,1018
2016-12-12T01:06:11.429Z,1018
2016-12-12T01:07:14.883Z,1018
2016-12-12T01:08:17.824Z,1018
2016-12-12T01:10:24.705Z,1018
2016-12-12T01:11:27.655Z,1018
2016-12-12T01:12:31.100Z,1018.1
2016-12-12T01:13:34.045Z,1018
2016-12-12T01:14:37.699Z,1018
2016-12-12T01:15:40.653Z,1018
2016-12-12T01:16:44.105Z,1018
2016-12-12T01:17:47.554Z,1018
2016-12-12T01:18:50.500Z,1018
2016-12-12T01:19:53.948Z,1018
2016-12-12T01:20:56.894Z,1018
2016-12-12T01:22:00.370Z,1018
2016-12-12T01:23:03.819Z,1018
2016-12-12T01:24:06.765Z,1018
2016-12-12T01:25:10.214Z,1018
2016-12-12T01:26:13.163Z,1018
2016-12-12T01:27:16.616Z,1018
2016-12-12T01:28:20.064Z,1018.1
2016-12-12T01:29:23.038Z,1018
2016-12-12T01:30:26.487Z,1017.9
2016-12-12T01:31:29.939Z,1018
2016-12-12T01:32:32.891Z,1017.9
2016-12-12T01:33:36.336Z,1017.9
2016-12-12T01:34:39.282Z,1017.9
2016-12-12T01:35:42.735Z,1017.9
2016-12-12T01:36:46.179Z,1018
2016-12-12T01:37:49.121Z,1017.9
2016-12-12T01:38:52.574Z,1018
2016-12-12T01:39:56.023Z,1018
2016-12-12T01:40:58.967Z,1018
2016-12-12T01:43:05.321Z,1017.9
2016-12-12T01:44:08.768Z,1017.9
2016-12-12T01:45:12.218Z,1017.9
2016-12-12T01:46:15.172Z,1018
2016-12-12T01:48:22.035Z,1017.9
2016-12-12T01:49:24.987Z,1017.9
2016-12-12T01:51:31.857Z,1017.9
2016-12-12T01:52:34.804Z,1017.9
2016-12-12T01:53:38.253Z,1017.9
2016-12-12T01:54:41.201Z,1017.9
2016-12-12T01:55:44.651Z,1017.9
2016-12-12T01:57:51.012Z,1018
2016-12-12T01:58:54.470Z,1018
2016-12-12T01:59:57.927Z,1018
2016-12-12T02:01:00.872Z,1017.9
2016-12-12T02:02:04.324Z,1018
2016-12-12T02:03:07.266Z,1017.9
2016-12-12T02:06:17.036Z,1017.9
2016-12-12T02:07:20.484Z,1017.9
2016-12-12T02:08:23.929Z,1017.9
2016-12-12T02:10:30.291Z,1017.9
2016-12-12T02:12:36.644Z,1018
2016-12-12T02:13:40.101Z,1018
2016-12-12T02:14:43.557Z,1018
2016-12-12T02:15:46.504Z,1018
2016-12-12T02:16:49.951Z,1018
2016-12-12T02:17:52.897Z,1018
2016-12-12T02:18:56.342Z,1018
2016-12-12T02:19:59.796Z,1018
2016-12-12T02:21:02.744Z,1018
2016-12-12T02:22:06.192Z,1018
2016-12-12T02:24:12.546Z,1018.1
2016-12-12T02:25:16.004Z,1018.1
2016-12-12T02:27:22.369Z,1018
2016-12-12T02:28:25.821Z,1018.1
2016-12-12T02:29:28.766Z,1018.1
2016-12-12T02:30:32.220Z,1018.1
2016-12-12T02:31:35.667Z,1018.1
2016-12-12T02:32:38.609Z,1018.1
2016-12-12T02:34:44.975Z,1018.1
2016-12-12T02:35:48.420Z,1018.1
2016-12-12T02:36:51.893Z,1018.1
2016-12-12T02:37:54.843Z,1018.1
2016-12-12T02:38:58.285Z,1018.1
2016-12-12T02:40:01.732Z,1018.1
2016-12-12T02:42:08.093Z,1018.1
2016-12-12T02:43:11.042Z,1018.2
2016-12-12T02:44:14.495Z,1018.2
2016-12-12T02:46:20.853Z,1018.2
2016-12-12T02:47:24.301Z,1018.2
2016-12-12T02:48:27.750Z,1018.2
2016-12-12T02:49:30.691Z,1018.2
2016-12-12T02:50:34.136Z,1018.2
2016-12-12T02:51:37.588Z,1018.2
2016-12-12T02:52:40.537Z,1018.2
2016-12-12T02:53:43.994Z,1018.2
2016-12-12T02:54:46.972Z,1018.2
2016-12-12T02:55:50.421Z,1018.2
2016-12-12T02:56:53.873Z,1018.2
2016-12-12T02:57:56.818Z,1018.2
2016-12-12T03:00:03.172Z,1018.2
2016-12-12T03:01:06.629Z,1018.2
2016-12-12T03:02:10.082Z,1018.2
2016-12-12T03:03:13.038Z,1018.2
2016-12-12T03:04:16.620Z,1018.3
2016-12-12T03:05:19.573Z,1018.3
2016-12-12T03:06:23.150Z,1018.2
2016-12-12T03:08:29.514Z,1018.3
2016-12-12T03:09:32.962Z,1018.3
2016-12-12T03:10:35.906Z,1018.3
2016-12-12T03:11:39.355Z,1018.2
2016-12-12T03:12:42.301Z,1018.3
2016-12-12T03:13:45.753Z,1018.3
2016-12-12T03:14:49.213Z,1018.3
2016-12-12T03:15:52.156Z,1018.3
2016-12-12T03:19:01.927Z,1018.3
2016-12-12T03:20:05.515Z,1018.3
2016-12-12T03:21:08.462Z,1018.2
2016-12-12T03:22:11.909Z,1018.3
2016-12-12T03:23:14.858Z,1018.2
2016-12-12T03:24:18.307Z,1018.2
2016-12-12T03:25:21.756Z,1018.2
2016-12-12T03:27:28.122Z,1018.2
2016-12-12T03:28:31.574Z,1018.2
2016-12-12T03:29:34.793Z,1018.2
2016-12-12T03:30:37.871Z,1018.2
2016-12-12T03:31:41.362Z,1018.2
2016-12-12T03:32:44.311Z,1018.2
2016-12-12T03:33:47.765Z,1018.2
2016-12-12T03:34:50.710Z,1018.3
2016-12-12T03:35:54.163Z,1018.2
2016-12-12T03:36:57.608Z,1018.2
2016-12-12T03:38:00.549Z,1018.2
2016-12-12T03:39:04.004Z,1018.2
2016-12-12T03:40:06.951Z,1018.2
2016-12-12T03:41:10.402Z,1018.2
2016-12-12T03:42:13.848Z,1018.3
2016-12-12T03:43:16.790Z,1018.3
2016-12-12T03:44:20.242Z,1018.3
2016-12-12T03:45:23.689Z,1018.2
2016-12-12T03:46:26.632Z,1018.2
2016-12-12T03:47:30.084Z,1018.2
2016-12-12T03:48:33.026Z,1018.2
2016-12-12T03:49:36.474Z,1018.2
2016-12-12T03:50:39.918Z,1018.2
2016-12-12T03:51:42.863Z,1018.2
2016-12-12T03:53:49.720Z,1018.2
2016-12-12T03:54:52.668Z,1018.2
2016-12-12T03:55:56.110Z,1018.2
2016-12-12T03:56:59.055Z,1018.2
2016-12-12T03:58:02.504Z,1018.2
2016-12-12T03:59:05.953Z,1018.2
2016-12-12T04:00:08.899Z,1018.2
2016-12-12T04:01:12.347Z,1018.2
2016-12-12T04:02:15.790Z,1018.3
2016-12-12T04:03:18.737Z,1018.3
2016-12-12T04:04:22.186Z,1018.2
2016-12-12T04:05:25.133Z,1018.3
2016-12-12T04:06:28.584Z,1018.3
2016-12-12T04:07:32.026Z,1018.3
2016-12-12T04:08:34.973Z,1018.3
2016-12-12T04:09:38.421Z,1018.3
2016-12-12T04:11:44.786Z,1018.3
2016-12-12T04:12:48.237Z,1018.3
2016-12-12T04:14:54.597Z,1018.3
2016-12-12T04:15:58.049Z,1018.3
2016-12-12T04:17:00.990Z,1018.3
2016-12-12T04:18:04.576Z,1018.3
2016-12-12T04:19:07.516Z,1018.4
2016-12-12T04:20:10.963Z,1018.4
2016-12-12T04:21:14.423Z,1018.4
2016-12-12T04:22:17.364Z,1018.3
2016-12-12T04:23:20.807Z,1018.3
2016-12-12T04:24:23.753Z,1018.3
2016-12-12T04:25:27.202Z,1018.4
2016-12-12T04:27:33.559Z,1018.3
2016-12-12T04:29:40.432Z,1018.4
2016-12-12T04:30:43.402Z,1018.4
2016-12-12T04:31:46.856Z,1018.4
2016-12-12T04:32:49.803Z,1018.4
2016-12-12T04:33:53.252Z,1018.4
2016-12-12T04:34:56.731Z,1018.4
2016-12-12T04:37:03.084Z,1018.4
2016-12-12T04:38:06.534Z,1018.4
2016-12-12T04:39:09.479Z,1018.4
2016-12-12T04:40:12.929Z,1018.4
2016-12-12T04:41:15.876Z,1018.4
2016-12-12T04:42:19.327Z,1018.5
2016-12-12T04:43:22.773Z,1018.5
2016-12-12T04:44:25.724Z,1018.5
2016-12-12T04:45:29.179Z,1018.5
2016-12-12T04:46:32.120Z,1018.5
2016-12-12T04:47:35.564Z,1018.5
2016-12-12T04:48:39.012Z,1018.5
2016-12-12T04:49:41.962Z,1018.5
2016-12-12T04:50:45.414Z,1018.5
2016-12-12T04:51:48.858Z,1018.5
2016-12-12T04:52:51.800Z,1018.6
2016-12-12T04:53:55.256Z,1018.5
2016-12-12T04:54:58.213Z,1018.6
2016-12-12T04:56:01.669Z,1018.5
2016-12-12T04:57:05.109Z,1018.5
2016-12-12T04:58:08.055Z,1018.5
2016-12-12T04:59:11.505Z,1018.6
2016-12-12T05:00:14.452Z,1018.6
2016-12-12T05:01:17.901Z,1018.6
2016-12-12T05:05:31.084Z,1018.6
2016-12-12T05:06:34.033Z,1018.6
2016-12-12T05:07:37.480Z,1018.6
2016-12-12T05:08:40.994Z,1018.7
2016-12-12T05:09:43.939Z,1018.6
2016-12-12T05:10:47.024Z,1018.6
2016-12-12T05:11:50.469Z,1018.6
2016-12-12T05:12:53.915Z,1018.6
2016-12-12T05:13:56.860Z,1018.6
2016-12-12T05:15:00.309Z,1018.6
2016-12-12T05:16:03.757Z,1018.6
2016-12-12T05:17:06.706Z,1018.6
2016-12-12T05:18:10.151Z,1018.6
2016-12-12T05:19:13.106Z,1018.7
2016-12-12T05:20:16.558Z,1018.7
2016-12-12T05:21:20.008Z,1018.7
2016-12-12T05:22:22.960Z,1018.7
2016-12-12T05:23:26.407Z,1018.7
2016-12-12T05:24:29.359Z,1018.7
2016-12-12T05:25:32.811Z,1018.6
2016-12-12T05:26:36.258Z,1018.6
2016-12-12T05:27:39.202Z,1018.7
2016-12-12T05:28:42.656Z,1018.7
2016-12-12T05:29:46.104Z,1018.7
2016-12-12T05:30:49.052Z,1018.7
2016-12-12T05:32:55.415Z,1018.7
2016-12-12T05:33:58.864Z,1018.7
2016-12-12T05:35:02.313Z,1018.8
2016-12-12T05:36:05.264Z,1018.8
2016-12-12T05:37:08.707Z,1018.8
2016-12-12T05:38:12.154Z,1018.8
2016-12-12T05:39:15.101Z,1018.8
2016-12-12T05:41:21.964Z,1018.8
2016-12-12T05:42:24.915Z,1018.8
2016-12-12T05:43:28.359Z,1018.9
2016-12-12T05:44:31.305Z,1018.8
2016-12-12T05:45:34.750Z,1018.9
2016-12-12T05:46:38.209Z,1018.9
2016-12-12T05:47:41.156Z,1018.9
2016-12-12T05:48:44.613Z,1018.9
2016-12-12T05:49:47.558Z,1019
2016-12-12T05:50:51.006Z,1019
2016-12-12T05:51:54.455Z,1019
2016-12-12T05:52:57.400Z,1019
2016-12-12T05:54:00.847Z,1019
2016-12-12T05:55:04.294Z,1019.1
2016-12-12T05:56:07.243Z,1019
2016-12-12T05:57:10.696Z,1019.1
2016-12-12T06:00:20.473Z,1019.1
2016-12-12T06:01:23.417Z,1019.1
2016-12-12T06:02:26.863Z,1019.1
2016-12-12T06:03:30.314Z,1019.1
2016-12-12T06:04:33.259Z,1019.1
2016-12-12T06:05:36.706Z,1019.1
2016-12-12T06:06:39.658Z,1019.1
2016-12-12T06:07:43.109Z,1019.1
2016-12-12T06:08:46.555Z,1019.2
2016-12-12T06:09:49.501Z,1019.2
2016-12-12T06:10:52.948Z,1019.2
2016-12-12T06:11:56.403Z,1019.2
2016-12-12T06:12:59.354Z,1019.2
2016-12-12T06:14:02.804Z,1019.2
2016-12-12T06:15:05.755Z,1019.2
2016-12-12T06:17:12.622Z,1019.2
2016-12-12T06:19:18.975Z,1019.3
2016-12-12T06:20:22.446Z,1019.3
2016-12-12T06:21:25.527Z,1019.2
2016-12-12T06:22:28.980Z,1019.3
2016-12-12T06:23:31.920Z,1019.3
2016-12-12T06:24:35.366Z,1019.3
2016-12-12T06:25:38.310Z,1019.3
2016-12-12T06:26:41.764Z,1019.3
2016-12-12T06:27:45.213Z,1019.4
2016-12-12T06:28:48.158Z,1019.4
2016-12-12T06:29:51.611Z,1019.4
2016-12-12T06:30:55.055Z,1019.4
2016-12-12T06:31:58.000Z,1019.4
2016-12-12T06:35:07.775Z,1019.5
2016-12-12T06:36:11.223Z,1019.5
2016-12-12T06:37:14.167Z,1019.5
2016-12-12T06:38:17.615Z,1019.5
2016-12-12T06:39:21.057Z,1019.5
2016-12-12T06:40:24.006Z,1019.5
2016-12-12T06:41:27.462Z,1019.6
2016-12-12T06:42:30.906Z,1019.6
2016-12-12T06:43:33.848Z,1019.6
2016-12-12T06:44:37.298Z,1019.6
2016-12-12T06:45:40.266Z,1019.7
2016-12-12T06:46:43.718Z,1019.7
2016-12-12T06:47:47.163Z,1019.7
2016-12-12T06:48:50.108Z,1019.7
2016-12-12T06:49:53.557Z,1019.7
2016-12-12T06:50:57.001Z,1019.7
2016-12-12T06:53:03.366Z,1019.8
2016-12-12T06:54:06.816Z,1019.8
2016-12-12T06:55:09.761Z,1019.7
2016-12-12T06:56:13.210Z,1019.7
2016-12-12T06:57:16.151Z,1019.8
2016-12-12T06:58:19.632Z,1019.8
2016-12-12T06:59:23.079Z,1019.9
2016-12-12T07:00:26.030Z,1020
2016-12-12T07:01:29.482Z,1020
2016-12-12T07:02:32.435Z,1020
2016-12-12T07:03:35.891Z,1020
2016-12-12T07:04:39.349Z,1020
2016-12-12T07:05:42.293Z,1020
2016-12-12T07:06:45.741Z,1020.1
2016-12-12T07:07:49.187Z,1020.1
2016-12-12T07:08:52.127Z,1020
2016-12-12T07:10:58.994Z,1020.1
2016-12-12T07:12:01.938Z,1020.1
2016-12-12T07:13:05.383Z,1020.1
2016-12-12T07:14:08.322Z,1020.1
2016-12-12T07:15:11.790Z,1020.2
2016-12-12T07:16:15.242Z,1020.1
2016-12-12T07:17:18.188Z,1020.2
2016-12-12T07:18:21.640Z,1020.2
2016-12-12T07:19:24.590Z,1020.2
2016-12-12T07:20:28.036Z,1020.2
2016-12-12T07:21:31.492Z,1020.2
2016-12-12T07:23:37.852Z,1020.2
2016-12-12T07:24:41.299Z,1020.2
2016-12-12T07:25:44.254Z,1020.2
2016-12-12T07:26:47.701Z,1020.3
2016-12-12T07:28:54.061Z,1020.3
2016-12-12T07:29:57.511Z,1020.3
2016-12-12T07:31:00.958Z,1020.4
2016-12-12T07:32:03.905Z,1020.3
2016-12-12T07:33:07.353Z,1020.3
2016-12-12T07:34:10.299Z,1020.4
2016-12-12T07:35:13.746Z,1020.4
2016-12-12T07:36:17.196Z,1020.4
2016-12-12T07:37:20.141Z,1020.4
2016-12-12T07:38:23.595Z,1020.4
2016-12-12T07:39:27.038Z,1020.4
2016-12-12T07:40:29.981Z,1020.4
2016-12-12T07:41:33.436Z,1020.4
2016-12-12T07:42:36.381Z,1020.5
2016-12-12T07:43:39.834Z,1020.5
2016-12-12T07:44:42.909Z,1020.5
2016-12-12T07:46:49.778Z,1020.5
2016-12-12T07:47:52.732Z,1020.5
2016-12-12T07:48:56.185Z,1020.5
2016-12-12T07:49:59.642Z,1020.5
2016-12-12T07:51:02.586Z,1020.6
2016-12-12T07:52:06.035Z,1020.6
2016-12-12T07:53:09.481Z,1020.6
2016-12-12T07:54:12.421Z,1020.6
2016-12-12T07:55:15.869Z,1020.6
2016-12-12T07:56:18.819Z,1020.6
2016-12-12T07:57:22.315Z,1020.7
2016-12-12T07:58:25.770Z,1020.7
2016-12-12T07:59:28.713Z,1020.6
2016-12-12T08:00:32.159Z,1020.6
2016-12-12T08:01:35.113Z,1020.7
2016-12-12T08:02:38.554Z,1020.6
2016-12-12T08:04:44.915Z,1020.6
2016-12-12T08:05:48.364Z,1020.6
2016-12-12T08:06:51.820Z,1020.6
2016-12-12T08:07:54.762Z,1020.7
2016-12-12T08:08:58.210Z,1020.7
2016-12-12T08:10:01.655Z,1020.8
2016-12-12T08:11:04.601Z,1020.7
2016-12-12T08:12:08.044Z,1020.8
2016-12-12T08:13:11.494Z,1020.8
2016-12-12T08:14:14.440Z,1020.8
2016-12-12T08:15:17.911Z,1020.8
2016-12-12T08:16:20.857Z,1020.8
2016-12-12T08:17:24.302Z,1020.8
2016-12-12T08:18:27.755Z,1020.8
2016-12-12T08:19:30.701Z,1020.9
2016-12-12T08:20:34.155Z,1021
2016-12-12T08:22:40.513Z,1021.1
2016-12-12T08:23:43.967Z,1021.1
2016-12-12T08:24:46.913Z,1021.1
2016-12-12T08:25:50.369Z,1021.1
2016-12-12T08:26:53.818Z,1021.1
2016-12-12T08:27:56.758Z,1021.1
2016-12-12T08:29:00.212Z,1021.2
2016-12-12T08:30:03.660Z,1021.1
2016-12-12T08:31:06.601Z,1021.1
2016-12-12T08:32:10.046Z,1021.2
2016-12-12T08:33:12.992Z,1021.2
2016-12-12T08:34:16.440Z,1021.2
2016-12-12T08:35:19.885Z,1021.3
2016-12-12T08:36:22.833Z,1021.3
2016-12-12T08:38:29.699Z,1021.3
2016-12-12T08:40:36.057Z,1021.3
2016-12-12T08:41:39.508Z,1021.3
2016-12-12T08:42:42.452Z,1021.4
2016-12-12T08:43:45.897Z,1021.4
2016-12-12T08:44:49.349Z,1021.5
2016-12-12T08:45:52.298Z,1021.5
2016-12-12T08:46:55.744Z,1021.5
2016-12-12T08:47:58.697Z,1021.5
2016-12-12T08:49:02.144Z,1021.5
2016-12-12T08:50:05.589Z,1021.5
2016-12-12T08:51:08.542Z,1021.5
2016-12-12T08:52:11.988Z,1021.5
2016-12-12T08:53:15.436Z,1021.5
2016-12-12T08:54:18.387Z,1021.5
2016-12-12T08:55:21.836Z,1021.6
2016-12-12T08:56:24.800Z,1021.6
2016-12-12T08:57:28.248Z,1021.6
2016-12-12T08:58:31.693Z,1021.7
2016-12-12T08:59:34.643Z,1021.7
2016-12-12T09:00:38.095Z,1021.7
2016-12-12T09:01:41.543Z,1021.6
2016-12-12T09:02:44.521Z,1021.7
2016-12-12T09:03:47.970Z,1021.7
2016-12-12T09:04:50.922Z,1021.7
2016-12-12T09:05:54.372Z,1021.7
2016-12-12T09:06:57.821Z,1021.8
2016-12-12T09:08:00.768Z,1021.9
2016-12-12T09:09:04.214Z,1021.9
2016-12-12T09:11:10.572Z,1021.9
2016-12-12T09:12:14.016Z,1021.9
2016-12-12T09:13:17.469Z,1022
2016-12-12T09:14:20.406Z,1021.9
2016-12-12T09:15:23.855Z,1021.9
2016-12-12T09:16:27.306Z,1021.9
2016-12-12T09:17:30.257Z,1021.9
2016-12-12T09:19:37.122Z,1021.9
2016-12-12T09:20:40.063Z,1021.9
2016-12-12T09:21:43.509Z,1021.9
2016-12-12T09:22:46.453Z,1021.9
2016-12-12T09:23:49.900Z,1022
2016-12-12T09:24:53.351Z,1022
2016-12-12T09:26:59.708Z,1022
2016-12-12T09:28:03.161Z,1022
2016-12-12T09:29:06.106Z,1022
2016-12-12T09:30:09.555Z,1022
2016-12-12T09:31:13.002Z,1022
2016-12-12T09:32:15.953Z,1022
2016-12-12T09:33:19.400Z,1022
2016-12-12T09:34:22.849Z,1021.9
2016-12-12T09:35:25.791Z,1021.9
2016-12-12T09:37:32.151Z,1021.7
2016-12-12T09:38:35.606Z,1021.7
2016-12-12T09:39:39.055Z,1021.7
2016-12-12T09:40:42.015Z,1021.6
2016-12-12T09:41:45.469Z,1021.6
2016-12-12T09:42:48.551Z,1021.6
2016-12-12T09:43:52.004Z,1021.6
2016-12-12T09:44:55.463Z,1021.7
2016-12-12T09:45:58.410Z,1021.8
2016-12-12T09:47:01.862Z,1021.7
2016-12-12T09:48:04.811Z,1021.8
2016-12-12T09:49:08.256Z,1021.8
2016-12-12T09:50:11.709Z,1021.8
2016-12-12T09:51:14.660Z,1021.8
2016-12-12T09:52:18.126Z,1021.8
2016-12-12T09:53:21.575Z,1021.9
2016-12-12T09:55:27.928Z,1022
2016-12-12T09:56:31.377Z,1022
2016-12-12T09:57:34.323Z,1022
2016-12-12T09:58:37.768Z,1022
2016-12-12T09:59:40.718Z,1022
2016-12-12T10:00:44.169Z,1022.2
2016-12-12T10:01:47.617Z,1022.2
2016-12-12T10:02:50.560Z,1022.2
2016-12-12T10:03:54.016Z,1022.2
2016-12-12T10:04:57.461Z,1022.3
2016-12-12T10:06:00.408Z,1022.4
2016-12-12T10:07:03.865Z,1022.4
2016-12-12T10:08:06.814Z,1022.4
2016-12-12T10:09:10.267Z,1022.4
2016-12-12T10:10:13.714Z,1022.3
2016-12-12T10:11:16.792Z,1022.3
2016-12-12T10:13:23.149Z,1022.3
2016-12-12T10:14:26.605Z,1022.3
2016-12-12T10:15:30.071Z,1022.3
2016-12-12T10:16:33.012Z,1022.3
2016-12-12T10:17:36.462Z,1022.2
2016-12-12T10:18:39.411Z,1022.3
2016-12-12T10:19:42.858Z,1022.3
2016-12-12T10:20:46.307Z,1022.3
2016-12-12T10:21:49.252Z,1022.3
2016-12-12T10:22:52.841Z,1022.3
2016-12-12T10:23:55.788Z,1022.3
2016-12-12T10:24:59.240Z,1022.2
2016-12-12T10:26:02.684Z,1022.2
2016-12-12T10:27:05.629Z,1022.3
2016-12-12T10:28:09.078Z,1022.3
2016-12-12T10:29:12.023Z,1022.3
2016-12-12T10:30:15.481Z,1022.3
2016-12-12T10:31:18.930Z,1022.2
2016-12-12T10:32:21.875Z,1022.2
2016-12-12T10:33:25.321Z,1022.2
2016-12-12T10:34:28.771Z,1022.2
2016-12-12T10:35:31.716Z,1022.2
2016-12-12T10:36:35.168Z,1022.2
2016-12-12T10:37:38.120Z,1022.3
2016-12-12T10:38:41.565Z,1022.3
2016-12-12T10:39:45.016Z,1022.3
2016-12-12T10:40:47.961Z,1022.4
2016-12-12T10:42:54.821Z,1022.4
2016-12-12T10:43:57.767Z,1022.5
2016-12-12T10:45:01.215Z,1022.5
2016-12-12T10:46:04.670Z,1022.5
2016-12-12T10:47:07.612Z,1022.5
2016-12-12T10:48:11.065Z,1022.6
2016-12-12T10:49:14.018Z,1022.7
2016-12-12T10:50:17.467Z,1022.7
2016-12-12T10:52:23.825Z,1022.7
2016-12-12T10:54:30.685Z,1022.7
2016-12-12T10:55:33.627Z,1022.6
2016-12-12T10:56:37.079Z,1022.6
2016-12-12T10:57:40.524Z,1022.6
2016-12-12T10:58:43.469Z,1022.6
2016-12-12T10:59:46.919Z,1022.6
2016-12-12T11:00:50.375Z,1022.6
2016-12-12T11:02:56.869Z,1022.5
2016-12-12T11:03:59.812Z,1022.5
2016-12-12T11:06:06.674Z,1022.4
2016-12-12T11:07:09.758Z,1022.4
2016-12-12T11:08:13.212Z,1022.3
2016-12-12T11:10:19.568Z,1022.3
2016-12-12T11:11:22.517Z,1022.3
2016-12-12T11:12:25.966Z,1022.4
2016-12-12T11:13:29.417Z,1022.3
2016-12-12T11:14:32.363Z,1022.4
2016-12-12T11:15:35.813Z,1022.4
2016-12-12T11:16:39.269Z,1022.4
2016-12-12T11:17:42.218Z,1022.4
2016-12-12T11:18:45.670Z,1022.4
2016-12-12T11:19:48.616Z,1022.4
2016-12-12T11:20:52.063Z,1022.4
2016-12-12T11:22:58.449Z,1022.5
2016-12-12T11:24:01.898Z,1022.5
2016-12-12T11:25:05.343Z,1022.4
2016-12-12T11:26:08.288Z,1022.4
2016-12-12T11:28:15.147Z,1022.4
2016-12-12T11:29:18.089Z,1022.4
2016-12-12T11:30:21.543Z,1022.4
2016-12-12T11:31:24.490Z,1022.5
2016-12-12T11:32:27.932Z,1022.5
2016-12-12T11:33:31.377Z,1022.6
2016-12-12T11:34:34.322Z,1022.6
2016-12-12T11:35:37.767Z,1022.6
2016-12-12T11:36:41.219Z,1022.6
2016-12-12T11:37:44.162Z,1022.6
2016-12-12T11:38:47.611Z,1022.7
2016-12-12T11:39:51.066Z,1022.6
2016-12-12T11:40:54.010Z,1022.6
2016-12-12T11:41:57.465Z,1022.6
2016-12-12T11:43:00.413Z,1022.6
2016-12-12T11:44:03.872Z,1022.6
2016-12-12T11:45:07.322Z,1022.6
2016-12-12T11:46:10.271Z,1022.6
2016-12-12T11:47:13.719Z,1022.5
2016-12-12T11:48:16.668Z,1022.6
2016-12-12T11:49:20.121Z,1022.6
2016-12-12T11:50:23.570Z,1022.6
2016-12-12T11:51:26.524Z,1022.7
2016-12-12T11:52:29.983Z,1022.7
2016-12-12T11:53:33.427Z,1022.7
2016-12-12T11:54:36.376Z,1022.6
2016-12-12T11:55:39.823Z,1022.6
2016-12-12T11:56:42.771Z,1022.5
2016-12-12T11:57:46.219Z,1022.5
2016-12-12T11:58:49.668Z,1022.6
2016-12-12T11:59:52.613Z,1022.6
2016-12-12T12:00:56.058Z,1022.6
2016-12-12T12:01:59.503Z,1022.6
2016-12-12T12:03:02.451Z,1022.5
2016-12-12T12:04:05.896Z,1022.5
2016-12-12T12:05:09.348Z,1022.5
2016-12-12T12:06:12.291Z,1022.6
2016-12-12T12:07:15.751Z,1022.6
2016-12-12T12:08:18.703Z,1022.7
2016-12-12T12:09:22.156Z,1022.7
2016-12-12T12:10:25.599Z,1022.8
2016-12-12T12:11:28.546Z,1022.8
2016-12-12T12:12:31.999Z,1022.8
2016-12-12T12:13:34.948Z,1022.7
2016-12-12T12:14:38.400Z,1022.7
2016-12-12T12:15:41.845Z,1022.6
2016-12-12T12:16:44.793Z,1022.6
2016-12-12T12:17:48.238Z,1022.6
2016-12-12T12:18:51.193Z,1022.5
2016-12-12T12:19:54.640Z,1022.5
2016-12-12T12:22:01.005Z,1022.5
2016-12-12T12:23:04.461Z,1022.5
2016-12-12T12:25:10.824Z,1022.5
2016-12-12T12:26:14.271Z,1022.6
2016-12-12T12:27:17.226Z,1022.5
2016-12-12T12:28:20.679Z,1022.5
2016-12-12T12:29:24.130Z,1022.6
2016-12-12T12:30:27.075Z,1022.6
2016-12-12T12:31:30.523Z,1022.6
2016-12-12T12:32:33.971Z,1022.6
2016-12-12T12:33:36.917Z,1022.7
2016-12-12T12:34:40.370Z,1022.8
2016-12-12T12:35:43.318Z,1022.7
2016-12-12T12:37:50.183Z,1022.7
2016-12-12T12:38:53.127Z,1022.8
2016-12-12T12:39:56.580Z,1022.8
2016-12-12T12:40:59.530Z,1022.8
2016-12-12T12:42:02.981Z,1022.9
2016-12-12T12:43:06.434Z,1022.8
2016-12-12T12:44:09.378Z,1022.8
2016-12-12T12:45:12.824Z,1022.9
2016-12-12T12:46:16.272Z,1022.8
2016-12-12T12:47:19.214Z,1022.8
2016-12-12T12:48:22.659Z,1022.8
2016-12-12T12:49:25.604Z,1022.8
2016-12-12T12:50:29.058Z,1022.8
2016-12-12T12:51:32.503Z,1022.7
2016-12-12T12:52:35.446Z,1022.8
2016-12-12T12:53:38.890Z,1022.8
2016-12-12T12:54:42.336Z,1022.8
2016-12-12T12:55:45.280Z,1022.8
2016-12-12T12:56:48.727Z,1022.9
2016-12-12T12:57:51.691Z,1022.9
2016-12-12T12:58:55.138Z,1022.9
2016-12-12T13:01:01.497Z,1022.9
2016-12-12T13:02:04.947Z,1022.8
2016-12-12T13:03:08.392Z,1022.9
2016-12-12T13:04:11.339Z,1022.9
2016-12-12T13:05:14.790Z,1022.9
2016-12-12T13:06:17.736Z,1022.9
2016-12-12T13:07:21.324Z,1022.9
2016-12-12T13:08:24.266Z,1022.9
2016-12-12T13:09:27.712Z,1022.9
2016-12-12T13:10:31.163Z,1022.9
2016-12-12T13:11:34.108Z,1023
2016-12-12T13:12:37.566Z,1022.9
2016-12-12T13:13:40.510Z,1022.9
2016-12-12T13:14:43.959Z,1022.9
2016-12-12T13:15:47.412Z,1022.9
2016-12-12T13:16:50.367Z,1022.9
2016-12-12T13:18:57.223Z,1022.9
2016-12-12T13:20:00.171Z,1022.9
2016-12-12T13:21:03.622Z,1023
2016-12-12T13:22:07.071Z,1022.9
2016-12-12T13:23:10.020Z,1022.9
2016-12-12T13:25:16.385Z,1022.9
2016-12-12T13:26:19.834Z,1022.8
2016-12-12T13:27:23.283Z,1022.8
2016-12-12T13:28:26.227Z,1022.8
2016-12-12T13:29:29.681Z,1022.7
2016-12-12T13:30:33.127Z,1022.7
2016-12-12T13:31:36.070Z,1022.7
2016-12-12T13:32:39.518Z,1022.6
2016-12-12T13:33:42.967Z,1022.7
2016-12-12T13:34:45.910Z,1022.6
2016-12-12T13:35:49.357Z,1022.7
2016-12-12T13:36:52.296Z,1022.6
2016-12-12T13:37:55.746Z,1022.6
2016-12-12T13:40:02.104Z,1022.6
2016-12-12T13:41:05.556Z,1022.6
2016-12-12T13:42:09.005Z,1022.6
2016-12-12T13:43:11.946Z,1022.6
2016-12-12T13:44:15.395Z,1022.6
2016-12-12T13:45:18.846Z,1022.6
2016-12-12T13:46:21.792Z,1022.6
2016-12-12T13:48:28.158Z,1022.7
2016-12-12T13:49:31.602Z,1022.6
2016-12-12T13:50:35.049Z,1022.6
2016-12-12T13:51:37.993Z,1022.6
2016-12-12T13:52:41.444Z,1022.6
2016-12-12T13:53:44.898Z,1022.6
2016-12-12T13:54:47.843Z,1022.6
2016-12-12T13:55:51.299Z,1022.6
2016-12-12T13:56:54.243Z,1022.6
2016-12-12T13:57:57.692Z,1022.6
2016-12-12T13:59:01.136Z,1022.6
2016-12-12T14:00:04.077Z,1022.6
2016-12-12T14:01:07.530Z,1022.6
2016-12-12T14:02:10.978Z,1022.6
2016-12-12T14:03:13.953Z,1022.5
2016-12-12T14:04:17.404Z,1022.5
2016-12-12T14:05:20.347Z,1022.6
2016-12-12T14:06:23.798Z,1022.5
2016-12-12T14:07:27.248Z,1022.5
2016-12-12T14:08:30.197Z,1022.5
2016-12-12T14:09:33.648Z,1022.5
2016-12-12T14:10:36.585Z,1022.5
2016-12-12T14:11:40.070Z,1022.5
2016-12-12T14:12:43.527Z,1022.4
2016-12-12T14:13:46.476Z,1022.3
2016-12-12T14:15:53.337Z,1022
2016-12-12T14:16:56.342Z,1021.9
2016-12-12T14:19:02.703Z,1021.8
2016-12-12T14:21:09.568Z,1021.6
2016-12-12T14:22:12.514Z,1021.6
2016-12-12T14:23:15.962Z,1021.5
2016-12-12T14:24:18.909Z,1021.5
2016-12-12T14:25:22.362Z,1021.4
2016-12-12T14:26:25.817Z,1021.4
2016-12-12T14:27:28.765Z,1021.4
2016-12-12T14:28:32.212Z,1021.4
2016-12-12T14:29:35.155Z,1021.2
2016-12-12T14:30:38.607Z,1021.3
2016-12-12T14:31:42.059Z,1021.3
2016-12-12T14:33:48.437Z,1021.3